Decoded Metar for WBKS (SANDAKAN/KALIMAN in _UNIDENTIFIED) (IATA:N/A) | Meteo·Mobile Aviation Weather
aviador You're here:

WBKS Decoded Metar

SANDAKAN/KALIMAN in _UNIDENTIFIED
Report Time2018-08-18 04:00:00
UTC Time2018-08-18 05:08:28
Flight Rules Old
WindVRB at 05 kt
Visibility9999 m
Phenomena:N/A
Clouds:Few 017 Hf
Broken 280 Hf
Expected CloudBase > 3,200 ft AGL from Temp-Dew spread
Ceiling28,000 ft
Temp33°C (ISA +18)
Dew Point25°C (63% RH)
Heat Index40.6°C
QNH1007 hPa
Density Alt2,720 ft
Elevation43 ft
Report Wrong Elevation
Raw Report
METAR WBKS 180400Z VRB05KT 9999 FEW017 BKN280 33/25 Q1007=

Extra information for WBKS:More info

Metar Taf Metar & Taf Last 4 Metars F.Rules Stats Wind Profile Meteogram Temp Stats Airport Information Weather charts Add Link Nearby VenuesMetar ALERT Operation Metar Decoded Social comments